Time,TemperatureF,DewpointF,PressureIn,WindDirection,WindDirectionDegrees,WindSpeedMPH,WindSpeedGustMPH,Humidity,HourlyPrecipIn,Conditions,Clouds,dailyrainin,SoftwareType,DateUTC
2013-05-14 00:02:00,60.0,52.5,29.02,ESE,113,0.0,0.0,76,0.00,,,0.00,WUHU216HW,2013-05-14 05:02:00,
2013-05-14 00:07:00,59.7,52.5,29.02,ESE,113,0.0,0.0,77,0.00,,,0.00,WUHU216HW,2013-05-14 05:07:00,
2013-05-14 00:12:00,59.5,52.7,29.02,ESE,113,0.0,0.0,78,0.00,,,0.00,WUHU216HW,2013-05-14 05:12:00,
2013-05-14 00:17:00,59.1,52.7,29.02,ESE,113,0.0,0.0,79,0.00,,,0.00,WUHU216HW,2013-05-14 05:17:00,
2013-05-14 00:22:00,58.8,52.7,29.02,ESE,113,0.0,0.0,80,0.00,,,0.00,WUHU216HW,2013-05-14 05:22:00,
2013-05-14 00:27:00,58.8,52.7,29.01,ESE,113,0.0,0.0,80,0.00,,,0.00,WUHU216HW,2013-05-14 05:27:00,
2013-05-14 00:32:00,59.1,53.3,29.01,ESE,113,0.0,0.0,81,0.00,,,0.00,WUHU216HW,2013-05-14 05:32:00,
2013-05-14 00:37:00,59.1,53.3,29.01,ESE,113,0.0,0.0,81,0.00,,,0.00,WUHU216HW,2013-05-14 05:37:00,
2013-05-14 00:42:00,59.1,53.3,29.01,ESE,113,0.0,0.0,81,0.00,,,0.00,WUHU216HW,2013-05-14 05:42:00,
2013-05-14 00:47:00,59.3,53.5,29.01,ESE,113,0.0,0.0,81,0.00,,,0.00,WUHU216HW,2013-05-14 05:47:00,
2013-05-14 00:52:00,59.5,53.7,29.01,ESE,113,0.0,0.0,81,0.00,,,0.00,WUHU216HW,2013-05-14 05:52:00,
2013-05-14 00:57:00,59.7,53.9,29.01,ESE,113,0.0,0.0,81,0.00,,,0.00,WUHU216HW,2013-05-14 05:57:00,
2013-05-14 01:02:00,59.9,54.1,29.01,ESE,113,0.0,0.0,81,0.00,,,0.00,WUHU216HW,2013-05-14 06:02:00,
2013-05-14 01:07:00,60.0,53.9,29.00,ESE,113,0.0,0.0,80,0.00,,,0.00,WUHU216HW,2013-05-14 06:07:00,
2013-05-14 01:12:00,60.0,53.9,29.00,ESE,113,0.0,0.0,80,0.00,,,0.00,WUHU216HW,2013-05-14 06:12:00,
2013-05-14 01:17:00,60.4,54.3,29.00,ESE,113,0.0,0.0,80,0.00,,,0.00,WUHU216HW,2013-05-14 06:17:00,
2013-05-14 01:22:00,60.4,54.3,29.00,ESE,113,0.0,0.0,80,0.00,,,0.00,WUHU216HW,2013-05-14 06:22:00,
2013-05-14 01:27:00,60.4,54.3,29.00,ESE,113,0.0,0.0,80,0.00,,,0.00,WUHU216HW,2013-05-14 06:27:00,
2013-05-14 01:32:00,60.0,53.9,28.99,ESE,113,0.0,0.0,80,0.00,,,0.00,WUHU216HW,2013-05-14 06:32:00,
2013-05-14 01:36:00,60.0,53.9,28.99,ESE,113,0.0,0.0,80,0.00,,,0.00,WUHU216HW,2013-05-14 06:36:00,
2013-05-14 01:41:00,60.0,53.9,28.99,ESE,113,0.0,0.0,80,0.00,,,0.00,WUHU216HW,2013-05-14 06:41:00,
2013-05-14 01:47:00,59.7,53.6,28.99,ESE,113,0.0,0.0,80,0.00,,,0.00,WUHU216HW,2013-05-14 06:47:00,
2013-05-14 01:52:00,59.5,53.4,28.99,ESE,113,0.0,0.0,80,0.00,,,0.00,WUHU216HW,2013-05-14 06:52:00,
2013-05-14 01:56:00,59.3,53.2,28.98,ESE,113,0.0,0.0,80,0.00,,,0.00,WUHU216HW,2013-05-14 06:56:00,
2013-05-14 02:02:00,59.3,53.2,28.98,ESE,113,0.0,0.0,80,0.00,,,0.00,WUHU216HW,2013-05-14 07:02:00,
2013-05-14 02:07:00,59.3,53.2,28.98,ESE,113,0.0,0.0,80,0.00,,,0.00,WUHU216HW,2013-05-14 07:07:00,
2013-05-14 02:12:00,59.3,53.5,28.97,ESE,113,0.0,0.0,81,0.00,,,0.00,WUHU216HW,2013-05-14 07:12:00,
2013-05-14 02:17:00,59.1,53.3,28.98,ESE,113,0.0,0.0,81,0.00,,,0.00,WUHU216HW,2013-05-14 07:17:00,
2013-05-14 02:22:00,59.1,53.3,28.97,ESE,113,0.0,0.0,81,0.00,,,0.00,WUHU216HW,2013-05-14 07:22:00,
2013-05-14 02:27:00,59.1,53.3,28.98,ESE,113,0.0,0.0,81,0.00,,,0.00,WUHU216HW,2013-05-14 07:27:00,
2013-05-14 02:32:00,59.0,53.2,28.97,ESE,113,0.0,0.0,81,0.00,,,0.00,WUHU216HW,2013-05-14 07:32:00,
2013-05-14 02:36:00,59.0,53.2,28.97,ESE,113,0.0,0.0,81,0.00,,,0.00,WUHU216HW,2013-05-14 07:36:00,
2013-05-14 02:42:00,59.3,53.5,28.97,ESE,113,0.0,0.0,81,0.00,,,0.00,WUHU216HW,2013-05-14 07:42:00,
2013-05-14 02:47:00,59.5,53.7,28.97,ESE,113,0.0,0.0,81,0.00,,,0.00,WUHU216HW,2013-05-14 07:47:00,
2013-05-14 02:52:00,59.5,53.7,28.97,ESE,113,0.0,0.0,81,0.00,,,0.00,WUHU216HW,2013-05-14 07:52:00,
2013-05-14 02:57:00,59.7,53.6,28.97,ESE,113,0.0,0.0,80,0.00,,,0.00,WUHU216HW,2013-05-14 07:57:00,
2013-05-14 03:02:00,59.5,53.4,28.97,ESE,113,0.0,0.0,80,0.00,,,0.00,WUHU216HW,2013-05-14 08:02:00,
2013-05-14 03:07:00,59.5,53.4,28.97,SE,135,0.0,0.0,80,0.00,,,0.00,WUHU216HW,2013-05-14 08:07:00,
2013-05-14 03:12:00,59.1,53.0,28.96,SE,135,0.0,0.0,80,0.00,,,0.00,WUHU216HW,2013-05-14 08:12:00,
2013-05-14 03:17:00,58.8,53.0,28.96,SE,135,0.0,0.0,81,0.00,,,0.00,WUHU216HW,2013-05-14 08:17:00,
2013-05-14 03:22:00,58.8,53.0,28.96,SE,135,0.0,0.0,81,0.00,,,0.00,WUHU216HW,2013-05-14 08:22:00,
2013-05-14 03:27:00,58.8,53.0,28.96,SE,135,0.0,0.0,81,0.00,,,0.00,WUHU216HW,2013-05-14 08:27:00,
2013-05-14 03:32:00,58.6,52.8,28.96,SE,135,0.0,0.0,81,0.00,,,0.00,WUHU216HW,2013-05-14 08:32:00,
2013-05-14 03:37:00,58.4,52.6,28.96,SE,135,0.0,0.0,81,0.00,,,0.00,WUHU216HW,2013-05-14 08:37:00,
2013-05-14 03:42:00,58.4,52.9,28.96,SE,135,0.0,0.0,82,0.00,,,0.00,WUHU216HW,2013-05-14 08:42:00,
2013-05-14 03:47:00,58.2,52.8,28.96,SE,135,0.0,0.0,82,0.00,,,0.00,WUHU216HW,2013-05-14 08:47:00,
2013-05-14 03:52:00,58.1,52.6,28.96,SE,135,0.0,0.0,82,0.00,,,0.00,WUHU216HW,2013-05-14 08:52:00,
2013-05-14 03:57:00,57.9,52.4,28.95,SE,135,0.0,0.0,82,0.00,,,0.00,WUHU216HW,2013-05-14 08:57:00,
2013-05-14 04:02:00,57.7,52.2,28.95,SE,135,0.0,0.0,82,0.00,,,0.00,WUHU216HW,2013-05-14 09:02:00,
2013-05-14 04:07:00,57.5,52.0,28.95,SE,135,0.0,0.0,82,0.00,,,0.00,WUHU216HW,2013-05-14 09:07:00,
2013-05-14 04:12:00,57.3,51.9,28.95,SE,135,0.0,0.0,82,0.00,,,0.00,WUHU216HW,2013-05-14 09:12:00,
2013-05-14 04:17:00,57.3,51.9,28.96,SE,135,0.0,0.0,82,0.00,,,0.00,WUHU216HW,2013-05-14 09:17:00,
2013-05-14 04:22:00,57.3,51.9,28.95,SE,135,0.0,0.0,82,0.00,,,0.00,WUHU216HW,2013-05-14 09:22:00,
2013-05-14 04:27:00,57.3,52.2,28.95,SE,135,0.0,0.0,83,0.00,,,0.00,WUHU216HW,2013-05-14 09:27:00,
2013-05-14 04:32:00,57.0,51.8,28.96,SE,135,0.0,0.0,83,0.00,,,0.00,WUHU216HW,2013-05-14 09:32:00,
2013-05-14 04:37:00,57.0,51.8,28.95,SE,135,0.0,0.0,83,0.00,,,0.00,WUHU216HW,2013-05-14 09:37:00,
2013-05-14 04:42:00,57.0,51.8,28.95,SE,135,0.0,0.0,83,0.00,,,0.00,WUHU216HW,2013-05-14 09:42:00,
2013-05-14 04:47:00,57.0,52.1,28.95,SE,135,0.0,0.0,84,0.00,,,0.00,WUHU216HW,2013-05-14 09:47:00,
2013-05-14 04:52:00,57.3,52.5,28.95,SE,135,0.0,0.0,84,0.00,,,0.00,WUHU216HW,2013-05-14 09:52:00,
2013-05-14 04:57:00,57.7,52.9,28.95,SE,135,0.0,0.0,84,0.00,,,0.00,WUHU216HW,2013-05-14 09:57:00,
2013-05-14 05:02:00,57.9,53.0,28.95,SE,135,0.0,0.0,84,0.00,,,0.00,WUHU216HW,2013-05-14 10:02:00,
2013-05-14 05:07:00,57.9,52.7,28.95,SE,135,0.0,0.0,83,0.00,,,0.00,WUHU216HW,2013-05-14 10:07:00,
2013-05-14 05:12:00,57.7,52.5,28.95,SE,135,0.0,0.0,83,0.00,,,0.00,WUHU216HW,2013-05-14 10:12:00,
2013-05-14 05:17:00,57.5,52.4,28.95,SE,135,0.0,0.0,83,0.00,,,0.00,WUHU216HW,2013-05-14 10:17:00,
2013-05-14 05:22:00,57.5,52.4,28.95,SE,135,0.0,0.0,83,0.00,,,0.00,WUHU216HW,2013-05-14 10:22:00,
2013-05-14 05:27:00,57.3,52.2,28.95,SE,135,0.0,0.0,83,0.00,,,0.00,WUHU216HW,2013-05-14 10:27:00,
2013-05-14 05:32:00,57.3,52.2,28.95,SE,135,0.0,0.0,83,0.00,,,0.00,WUHU216HW,2013-05-14 10:32:00,
2013-05-14 05:37:00,57.0,51.8,28.95,SE,135,0.0,0.0,83,0.00,,,0.00,WUHU216HW,2013-05-14 10:37:00,
2013-05-14 05:42:00,57.0,51.8,28.95,SE,135,0.0,0.0,83,0.00,,,0.00,WUHU216HW,2013-05-14 10:42:00,
2013-05-14 05:47:00,57.0,51.8,28.95,SE,135,0.0,0.0,83,0.00,,,0.00,WUHU216HW,2013-05-14 10:47:00,
2013-05-14 05:52:00,57.0,51.8,28.95,SW,225,0.0,0.0,83,0.00,,,0.00,WUHU216HW,2013-05-14 10:52:00,
2013-05-14 05:57:00,56.8,51.6,28.95,SW,225,0.0,0.0,83,0.00,,,0.00,WUHU216HW,2013-05-14 10:57:00,
2013-05-14 06:02:00,56.8,51.6,28.96,SW,225,0.0,0.0,83,0.00,,,0.00,WUHU216HW,2013-05-14 11:02:00,
2013-05-14 06:07:00,56.4,51.3,28.96,SW,225,0.0,0.0,83,0.00,,,0.00,WUHU216HW,2013-05-14 11:07:00,
2013-05-14 06:12:00,56.4,51.3,28.96,SW,225,0.0,0.0,83,0.00,,,0.00,WUHU216HW,2013-05-14 11:12:00,
2013-05-14 06:17:00,56.3,51.1,28.95,SW,225,0.0,0.0,83,0.00,,,0.00,WUHU216HW,2013-05-14 11:17:00,
2013-05-14 06:22:00,56.4,51.3,28.96,SW,225,0.0,0.0,83,0.00,,,0.00,WUHU216HW,2013-05-14 11:22:00,
2013-05-14 06:27:00,56.8,51.6,28.96,SW,225,0.0,0.0,83,0.00,,,0.00,WUHU216HW,2013-05-14 11:27:00,
2013-05-14 06:32:00,57.3,52.2,28.96,SW,225,0.0,0.0,83,0.00,,,0.00,WUHU216HW,2013-05-14 11:32:00,
2013-05-14 06:37:00,57.9,52.7,28.96,SW,225,0.0,0.0,83,0.00,,,0.00,WUHU216HW,2013-05-14 11:37:00,
2013-05-14 06:42:00,58.8,53.0,28.96,SW,225,0.0,0.0,81,0.00,,,0.00,WUHU216HW,2013-05-14 11:42:00,
2013-05-14 06:47:00,59.5,53.4,28.95,SW,225,0.0,0.0,80,0.00,,,0.00,WUHU216HW,2013-05-14 11:47:00,
2013-05-14 06:53:00,60.9,54.1,28.95,SW,225,0.0,0.0,78,0.00,,,0.00,WUHU216HW,2013-05-14 11:53:00,
2013-05-14 06:58:00,62.4,54.6,28.96,SW,225,0.0,0.0,76,0.00,,,0.00,WUHU216HW,2013-05-14 11:58:00,
2013-05-14 07:03:00,64.0,55.2,28.96,SW,225,0.0,0.0,73,0.00,,,0.00,WUHU216HW,2013-05-14 12:03:00,
2013-05-14 07:08:00,66.0,55.9,28.96,SE,135,0.0,0.0,70,0.00,,,0.00,WUHU216HW,2013-05-14 12:08:00,
2013-05-14 07:13:00,67.2,56.3,28.96,SE,135,0.0,0.0,68,0.00,,,0.00,WUHU216HW,2013-05-14 12:13:00,
2013-05-14 07:18:00,68.5,56.6,28.96,SE,135,0.0,0.0,66,0.00,,,0.00,WUHU216HW,2013-05-14 12:18:00,
2013-05-14 07:23:00,69.6,56.4,28.96,SE,135,0.0,0.0,63,0.00,,,0.00,WUHU216HW,2013-05-14 12:23:00,
2013-05-14 07:28:00,70.3,56.3,28.96,SE,135,0.0,0.0,61,0.00,,,0.00,WUHU216HW,2013-05-14 12:28:00,
2013-05-14 07:33:00,70.8,56.3,28.96,SE,135,0.0,0.0,60,0.00,,,0.00,WUHU216HW,2013-05-14 12:33:00,
2013-05-14 07:38:00,71.9,55.8,28.96,SE,135,0.0,0.0,57,0.00,,,0.00,WUHU216HW,2013-05-14 12:38:00,
2013-05-14 07:43:00,72.3,56.1,28.96,SSE,158,9.3,9.3,57,0.00,,,0.00,WUHU216HW,2013-05-14 12:43:00,
2013-05-14 07:48:00,72.1,54.9,28.96,SSE,158,0.0,9.3,55,0.00,,,0.00,WUHU216HW,2013-05-14 12:48:00,
2013-05-14 07:53:00,72.1,54.4,28.96,SSE,158,0.0,4.2,54,0.00,,,0.00,WUHU216HW,2013-05-14 12:53:00,
2013-05-14 07:58:00,72.1,54.4,28.96,SSE,158,4.2,4.2,54,0.00,,,0.00,WUHU216HW,2013-05-14 12:58:00,
2013-05-14 08:03:00,72.1,53.9,28.96,SSW,203,1.5,4.2,53,0.00,,,0.00,WUHU216HW,2013-05-14 13:03:00,
2013-05-14 08:08:00,72.3,53.6,28.96,SSE,158,0.0,2.2,52,0.00,,,0.00,WUHU216HW,2013-05-14 13:08:00,
2013-05-14 08:13:00,72.6,53.4,28.96,SSE,158,0.0,2.2,51,0.00,,,0.00,WUHU216HW,2013-05-14 13:13:00,
2013-05-14 08:18:00,72.8,53.6,28.96,South,180,0.0,9.3,51,0.00,,,0.00,WUHU216HW,2013-05-14 13:18:00,
2013-05-14 08:23:00,74.6,53.6,28.96,South,180,0.0,9.3,48,0.00,,,0.00,WUHU216HW,2013-05-14 13:23:00,
2013-05-14 08:28:00,75.7,54.0,28.96,South,180,0.0,0.0,47,0.00,,,0.00,WUHU216HW,2013-05-14 13:28:00,
2013-05-14 08:33:00,75.9,54.2,28.96,South,180,0.0,0.0,47,0.00,,,0.00,WUHU216HW,2013-05-14 13:33:00,
2013-05-14 08:38:00,75.9,54.2,28.96,South,180,0.0,0.0,47,0.00,,,0.00,WUHU216HW,2013-05-14 13:38:00,
2013-05-14 08:43:00,76.1,53.7,28.96,South,180,0.0,0.0,46,0.00,,,0.00,WUHU216HW,2013-05-14 13:43:00,
2013-05-14 08:48:00,75.9,51.7,28.96,SSE,158,5.5,5.5,43,0.00,,,0.00,WUHU216HW,2013-05-14 13:48:00,
2013-05-14 08:53:00,75.9,52.9,28.96,SSE,158,0.0,6.9,45,0.00,,,0.00,WUHU216HW,2013-05-14 13:53:00,
2013-05-14 08:58:00,75.9,52.9,28.96,SSE,158,4.4,6.9,45,0.00,,,0.00,WUHU216HW,2013-05-14 13:58:00,
2013-05-14 09:03:00,76.4,53.4,28.96,SSE,158,6.9,6.9,45,0.00,,,0.00,WUHU216HW,2013-05-14 14:03:00,
2013-05-14 09:08:00,76.8,53.1,28.96,SSE,158,8.0,8.0,44,0.00,,,0.00,WUHU216HW,2013-05-14 14:08:00,
2013-05-14 09:13:00,76.8,53.1,28.96,SSE,158,0.0,8.0,44,0.00,,,0.00,WUHU216HW,2013-05-14 14:13:00,
2013-05-14 09:18:00,77.0,53.3,28.96,South,180,0.0,8.0,44,0.00,,,0.00,WUHU216HW,2013-05-14 14:18:00,
2013-05-14 09:23:00,77.1,52.8,28.96,SSE,158,0.0,7.3,43,0.00,,,0.00,WUHU216HW,2013-05-14 14:23:00,
2013-05-14 09:28:00,77.5,53.8,28.96,SSE,158,6.9,7.3,44,0.00,,,0.00,WUHU216HW,2013-05-14 14:28:00,
2013-05-14 09:33:00,77.7,53.3,28.96,SSE,158,6.9,7.3,43,0.00,,,0.00,WUHU216HW,2013-05-14 14:33:00,
2013-05-14 09:38:00,77.7,53.3,28.96,SSE,158,0.0,6.9,43,0.00,,,0.00,WUHU216HW,2013-05-14 14:38:00,
2013-05-14 09:43:00,77.7,53.3,28.96,SSE,158,0.0,6.9,43,0.00,,,0.00,WUHU216HW,2013-05-14 14:43:00,
2013-05-14 09:48:00,78.0,53.7,28.96,SSE,158,3.5,3.5,43,0.00,,,0.00,WUHU216HW,2013-05-14 14:48:00,
2013-05-14 09:53:00,78.4,54.0,28.96,SSE,158,5.3,5.3,43,0.00,,,0.00,WUHU216HW,2013-05-14 14:53:00,
2013-05-14 09:58:00,78.6,54.1,28.96,South,180,0.0,5.3,43,0.00,,,0.00,WUHU216HW,2013-05-14 14:58:00,
2013-05-14 10:03:00,78.6,54.1,28.96,South,180,0.0,5.3,43,0.00,,,0.00,WUHU216HW,2013-05-14 15:03:00,
2013-05-14 10:08:00,79.3,54.2,28.96,SSE,158,0.0,0.0,42,0.00,,,0.00,WUHU216HW,2013-05-14 15:08:00,
2013-05-14 10:13:00,79.3,54.2,28.96,SSE,158,9.3,9.3,42,0.00,,,0.00,WUHU216HW,2013-05-14 15:13:00,
2013-05-14 10:18:00,79.7,54.3,28.96,South,180,4.6,9.3,42,0.00,,,0.00,WUHU216HW,2013-05-14 15:18:00,
2013-05-14 10:23:00,80.2,55.0,28.96,SSE,158,0.0,9.3,42,0.00,,,0.00,WUHU216HW,2013-05-14 15:23:00,
2013-05-14 10:28:00,80.6,55.3,28.96,SSW,203,0.0,4.9,42,0.00,,,0.00,WUHU216HW,2013-05-14 15:28:00,
2013-05-14 10:33:00,80.9,55.0,28.96,SSW,203,0.0,0.0,41,0.00,,,0.00,WUHU216HW,2013-05-14 15:33:00,
2013-05-14 10:38:00,81.3,55.4,28.96,SW,225,9.6,9.6,41,0.00,,,0.00,WUHU216HW,2013-05-14 15:38:00,
2013-05-14 10:43:00,81.6,55.1,28.96,SW,225,0.0,9.6,40,0.00,,,0.00,WUHU216HW,2013-05-14 15:43:00,
2013-05-14 10:48:00,82.0,54.6,28.97,South,180,0.0,9.6,39,0.00,,,0.00,WUHU216HW,2013-05-14 15:48:00,
2013-05-14 10:53:00,82.2,55.5,28.97,SSE,158,0.0,0.0,40,0.00,,,0.00,WUHU216HW,2013-05-14 15:53:00,
2013-05-14 10:58:00,82.9,56.2,28.97,SSW,203,0.0,0.0,40,0.00,,,0.00,WUHU216HW,2013-05-14 15:58:00,
2013-05-14 11:03:00,83.3,54.9,28.97,SSE,158,0.0,7.3,38,0.00,,,0.00,WUHU216HW,2013-05-14 16:03:00,
2013-05-14 11:08:00,83.4,55.1,28.97,SSE,158,6.0,7.3,38,0.00,,,0.00,WUHU216HW,2013-05-14 16:08:00,
2013-05-14 11:13:00,83.8,55.4,28.97,SSE,158,6.0,6.0,38,0.00,,,0.00,WUHU216HW,2013-05-14 16:13:00,
2013-05-14 11:18:00,84.7,56.2,28.97,SE,135,0.0,6.0,38,0.00,,,0.00,WUHU216HW,2013-05-14 16:18:00,
2013-05-14 11:23:00,85.1,55.0,28.97,SSE,158,5.1,6.0,36,0.00,,,0.00,WUHU216HW,2013-05-14 16:23:00,
2013-05-14 11:28:00,85.6,56.3,28.97,SSE,158,0.0,5.1,37,0.00,,,0.00,WUHU216HW,2013-05-14 16:28:00,
2013-05-14 11:33:00,85.6,56.3,28.97,SSE,158,0.0,5.1,37,0.00,,,0.00,WUHU216HW,2013-05-14 16:33:00,
2013-05-14 11:38:00,85.6,56.3,28.97,SSE,158,0.0,0.0,37,0.00,,,0.00,WUHU216HW,2013-05-14 16:38:00,
2013-05-14 11:43:00,85.6,56.3,28.97,SSE,158,0.0,0.0,37,0.00,,,0.00,WUHU216HW,2013-05-14 16:43:00,
2013-05-14 11:48:00,85.6,56.3,28.97,SSE,158,0.0,0.0,37,0.00,,,0.00,WUHU216HW,2013-05-14 16:48:00,
2013-05-14 11:59:00,89.2,56.1,28.97,SSE,158,0.0,0.0,33,0.00,,,0.00,WUHU216HW,2013-05-14 16:59:00,
2013-05-14 12:04:00,90.1,57.0,28.97,SSE,158,0.0,0.0,33,0.00,,,0.00,WUHU216HW,2013-05-14 17:04:00,
2013-05-14 12:09:00,90.5,55.7,28.97,WSW,248,12.3,12.3,31,0.00,,,0.00,WUHU216HW,2013-05-14 17:09:00,
2013-05-14 12:15:00,90.5,55.7,28.97,WSW,248,12.3,12.3,31,0.00,,,0.00,WUHU216HW,2013-05-14 17:15:00,
2013-05-14 12:20:00,90.5,55.7,28.96,WSW,248,12.3,12.3,31,0.00,,,0.00,WUHU216HW,2013-05-14 17:20:00,
2013-05-14 12:25:00,90.5,55.7,28.96,WSW,248,12.3,12.3,31,0.00,,,0.00,WUHU216HW,2013-05-14 17:25:00,
2013-05-14 12:30:00,90.5,55.7,28.96,WSW,248,12.3,12.3,31,0.00,,,0.00,WUHU216HW,2013-05-14 17:30:00,
2013-05-14 12:50:00,91.5,56.6,28.96,SW,225,7.3,7.3,31,0.00,,,0.00,WUHU216HW,2013-05-14 17:50:00,
2013-05-14 12:55:00,91.5,56.6,28.96,SW,225,7.3,7.3,31,0.00,,,0.00,WUHU216HW,2013-05-14 17:55:00,
2013-05-14 13:00:00,91.5,56.6,28.96,SW,225,7.3,7.3,31,0.00,,,0.00,WUHU216HW,2013-05-14 18:00:00,
2013-05-14 13:05:00,91.5,56.6,28.96,SW,225,7.3,7.3,31,0.00,,,0.00,WUHU216HW,2013-05-14 18:05:00,
2013-05-14 13:50:00,93.7,58.4,28.94,South,180,0.0,0.0,31,0.00,,,0.00,WUHU216HW,2013-05-14 18:50:00,
2013-05-14 13:55:00,93.7,56.5,28.95,South,180,0.0,0.0,29,0.00,,,0.00,WUHU216HW,2013-05-14 18:55:00,
2013-05-14 14:00:00,93.7,56.5,28.95,South,180,0.0,0.0,29,0.00,,,0.00,WUHU216HW,2013-05-14 19:00:00,
2013-05-14 14:05:00,93.7,56.5,28.94,South,180,0.0,0.0,29,0.00,,,0.00,WUHU216HW,2013-05-14 19:05:00,
2013-05-14 14:18:00,93.3,57.3,28.95,SSE,158,0.0,0.0,30,0.00,,,0.00,WUHU216HW,2013-05-14 19:18:00,
2013-05-14 14:23:00,93.3,57.3,28.95,SSE,158,0.0,0.0,30,0.00,,,0.00,WUHU216HW,2013-05-14 19:23:00,
2013-05-14 14:28:00,93.3,57.3,28.95,SSE,158,0.0,0.0,30,0.00,,,0.00,WUHU216HW,2013-05-14 19:28:00,
2013-05-14 14:33:00,93.3,57.3,28.94,SSE,158,0.0,0.0,30,0.00,,,0.00,WUHU216HW,2013-05-14 19:33:00,
2013-05-14 14:38:00,93.3,57.3,28.94,SSE,158,0.0,0.0,30,0.00,,,0.00,WUHU216HW,2013-05-14 19:38:00,
2013-05-14 14:43:00,93.3,57.3,28.94,SSE,158,0.0,0.0,30,0.00,,,0.00,WUHU216HW,2013-05-14 19:43:00,
2013-05-14 14:48:00,93.3,57.3,28.94,SSE,158,0.0,0.0,30,0.00,,,0.00,WUHU216HW,2013-05-14 19:48:00,
2013-05-14 18:45:00,86.7,51.6,28.91,WSW,248,6.2,6.2,30,0.00,,,0.00,WUHU216HW,2013-05-14 23:45:00,
2013-05-14 18:50:00,86.5,51.5,28.91,WSW,248,0.4,6.2,30,0.00,,,0.00,WUHU216HW,2013-05-14 23:50:00,
2013-05-14 18:55:00,86.1,51.2,28.91,WSW,248,8.0,8.0,31,0.00,,,0.00,WUHU216HW,2013-05-14 23:55:00,
2013-05-14 19:01:00,85.8,50.9,28.91,WSW,248,0.0,8.0,30,0.00,,,0.00,WUHU216HW,2013-05-15 00:01:00,
2013-05-14 19:06:00,85.6,52.3,28.91,WSW,248,0.0,0.0,32,0.00,,,0.00,WUHU216HW,2013-05-15 00:06:00,
2013-05-14 19:11:00,85.6,52.3,28.91,WSW,248,0.0,0.0,32,0.00,,,0.00,WUHU216HW,2013-05-15 00:11:00,
2013-05-14 19:16:00,85.6,52.3,28.91,WSW,248,0.0,0.0,32,0.00,,,0.00,WUHU216HW,2013-05-15 00:16:00,
2013-05-14 19:21:00,85.6,52.3,28.91,WSW,248,0.0,0.0,32,0.00,,,0.00,WUHU216HW,2013-05-15 00:21:00,
2013-05-14 19:26:00,85.6,52.3,28.91,WSW,248,0.0,0.0,32,0.00,,,0.00,WUHU216HW,2013-05-15 00:26:00,
2013-05-14 22:02:00,70.8,53.3,28.95,SSE,158,0.6,0.6,54,0.00,,,0.00,WUHU216HW,2013-05-15 03:02:00,
2013-05-14 22:07:00,70.8,53.3,28.95,SSE,158,0.6,0.6,54,0.00,,,0.00,WUHU216HW,2013-05-15 03:07:00,
2013-05-14 22:12:00,70.8,53.3,28.96,SSE,158,0.6,0.6,54,0.00,,,0.00,WUHU216HW,2013-05-15 03:12:00,
2013-05-14 22:17:00,70.8,53.3,28.96,SSE,158,0.6,0.6,54,0.00,,,0.00,WUHU216HW,2013-05-15 03:17:00,
2013-05-14 22:22:00,70.3,52.8,28.95,SSE,158,0.6,0.6,54,0.00,,,0.00,WUHU216HW,2013-05-15 03:22:00,
2013-05-14 22:28:00,70.3,52.8,28.96,SSE,158,0.6,0.6,54,0.00,,,0.00,WUHU216HW,2013-05-15 03:28:00,
2013-05-14 22:33:00,70.3,52.8,28.95,SSE,158,0.6,0.6,54,0.00,,,0.00,WUHU216HW,2013-05-15 03:33:00,